CheckWX is a tool to help pilots better visualize weather data.  It is not intended as a substitute for an official pre-flight weather briefing.

12:26:29 UTC

KTTN TAF
Trenton Mercer Airport
Trenton, New Jersey, USA
KTTN 041721Z 0418/0518 08007KT P6SM SCT025 BKN035 TEMPO 0418/0421 BKN030 FM042100 VRB04KT P6SM SCT025 BKN035 FM051500 25006KT P6SM BKN045

Apr-4@
18:00 UTC

Apr-4 @ 18:00 UTC

Apr-4@
21:00 UTC

Apr-4 @ 21:00 UTC

TAF KTTN 041721Z 0418/0518 08007KT P6SM SCT025 BKN035

Expired

Wind
  • 080° at 7 KTS
Cloud Levels
  • Scattered at 2,500' AGL
  • Broken at 3,500' AGL

Apr-4@
18:00 UTC

Apr-4 @ 18:00 UTC

Apr-4@
21:00 UTC

Apr-4 @ 21:00 UTC

TEMPO 0418/0421 BKN030

Expired

Cloud Levels
  • Broken at 3,000' AGL

Apr-4@
21:00 UTC

Apr-4 @ 21:00 UTC

Apr-5@
15:00 UTC

Apr-5 @ 15:00 UTC

FM042100 VRB04KT P6SM SCT025 BKN035

From

From Standard forecast or significant change

Wind
  • Variable at 4 KTS
Cloud Levels
  • Scattered at 2,500' AGL
  • Broken at 3,500' AGL

Apr-5@
15:00 UTC

Apr-5 @ 15:00 UTC

Apr-5@
18:00 UTC

Apr-5 @ 18:00 UTC

FM051500 25006KT P6SM BKN045

From

From Standard forecast or significant change

Wind
  • 250° at 6 KTS
Cloud Levels
  • Broken at 4,500' AGL